Time;durP1;ratioP1;P1;durP2;ratioP2;P2;SDS_P1;SDS_P2;PMS_P1;PMS_P2;Temp;Humidity;BMP_temperature;BMP_pressure;BME280_temperature;BME280_humidity;BME280_pressure;Samples;Min_cycle;Max_cycle;Signal;HPM_P1;HPM_P2
2023/03/24 00:01:04;;;;;;;26.75;20.52;;;;;;;-142.70;100.00;60390.16;4849091;29;20508;-77
2023/03/24 00:03:30;;;;;;;28.23;20.45;;;;;;;-142.70;100.00;60390.16;4848058;29;20102;-77
2023/03/24 00:06:00;;;;;;;31.05;22.77;;;;;;;-142.70;100.00;60390.16;4832891;29;20066;-77
2023/03/24 00:08:29;;;;;;;30.00;22.15;;;;;;;-142.70;100.00;60390.16;4849716;29;20041;-77
2023/03/24 00:10:58;;;;;;;21.23;16.70;;;;;;;-142.70;100.00;60390.16;4832066;29;20036;-77
2023/03/24 00:13:24;;;;;;;;;;;;;;;-142.70;100.00;60390.16;4850116;29;20194;-77
2023/03/24 00:15:49;;;;;;;18.48;15.38;;;;;;;-142.70;100.00;60390.16;4846621;29;20426;-77
2023/03/24 00:18:15;;;;;;;21.75;18.00;;;;;;;-142.70;100.00;60390.16;4849447;29;20580;-77
2023/03/24 00:20:41;;;;;;;26.48;20.80;;;;;;;-142.70;100.00;60390.16;4848719;29;20053;-77
2023/03/24 00:23:07;;;;;;;23.65;19.20;;;;;;;-142.70;100.00;60390.16;4848749;29;20080;-77
2023/03/24 00:25:34;;;;;;;23.10;18.27;;;;;;;-142.70;100.00;60390.16;4847607;29;20073;-77
2023/03/24 00:28:01;;;;;;;18.75;16.17;;;;;;;-142.70;100.00;60390.16;4847456;29;20037;-77
2023/03/24 00:30:27;;;;;;;19.70;13.98;;;;;;;-142.70;100.00;60390.16;4832356;29;20038;-77
2023/03/24 00:32:53;;;;;;;16.23;13.38;;;;;;;-142.70;100.00;60390.16;4849007;29;20036;-77
2023/03/24 00:35:18;;;;;;;17.58;12.23;;;;;;;-142.70;100.00;60390.16;4847805;29;20038;-77
2023/03/24 00:37:44;;;;;;;17.02;13.00;;;;;;;-142.70;100.00;60390.16;4832015;29;20037;-77
2023/03/24 00:40:15;;;;;;;22.20;16.05;;;;;;;-142.70;100.00;60390.16;4847544;29;20108;-78
2023/03/24 00:42:44;;;;;;;21.52;17.85;;;;;;;-142.70;100.00;60390.16;4847431;29;20036;-77
2023/03/24 00:45:12;;;;;;;22.23;16.63;;;;;;;-142.70;100.00;60390.16;4833441;29;20461;-77
2023/03/24 00:47:37;;;;;;;20.33;16.25;;;;;;;-142.70;100.00;60390.16;4831652;29;20072;-78
2023/03/24 00:50:10;;;;;;;21.90;17.33;;;;;;;-142.70;100.00;60390.16;4832009;29;20547;-77
2023/03/24 00:52:36;;;;;;;26.10;18.83;;;;;;;-142.70;100.00;60390.16;4847833;29;20086;-77
2023/03/24 00:55:04;;;;;;;27.50;20.17;;;;;;;-142.70;100.00;60390.16;4838699;29;20044;-77
2023/03/24 00:57:33;;;;;;;22.92;19.55;;;;;;;-142.70;100.00;60390.16;4847911;29;20118;-77
2023/03/24 01:00:06;;;;;;;23.93;18.67;;;;;;;-142.70;100.00;60390.16;4847144;29;20085;-77
2023/03/24 01:02:32;;;;;;;27.80;20.25;;;;;;;-142.70;100.00;60390.16;4818978;29;20316;-77
2023/03/24 01:05:00;;;;;;;25.10;19.77;;;;;;;-142.70;100.00;60390.16;4831177;29;20546;-77
2023/03/24 01:07:28;;;;;;;31.90;20.45;;;;;;;-142.70;100.00;60390.16;4832487;29;20514;-78
2023/03/24 01:09:57;;;;;;;29.63;20.58;;;;;;;-142.70;100.00;60390.16;4847151;29;20046;-77
2023/03/24 01:12:31;;;;;;;28.17;21.33;;;;;;;-142.70;100.00;60390.16;4847703;29;20124;-77
2023/03/24 01:14:58;;;;;;;29.70;22.73;;;;;;;-142.70;100.00;60390.16;4847848;29;20029;-77
2023/03/24 01:17:24;;;;;;;31.48;23.83;;;;;;;-142.70;100.00;60390.16;4831993;29;20538;-77
2023/03/24 01:19:51;;;;;;;31.70;22.17;;;;;;;-142.70;100.00;60390.16;4847323;29;20033;-77
2023/03/24 01:22:16;;;;;;;28.02;22.13;;;;;;;-142.70;100.00;60390.16;4847259;29;20029;-77
2023/03/24 01:24:42;;;;;;;29.27;21.77;;;;;;;-142.70;100.00;60390.16;4851136;29;20415;-77
2023/03/24 01:27:08;;;;;;;34.33;23.50;;;;;;;-142.70;100.00;60390.16;4850393;29;20040;-77
2023/03/24 01:29:33;;;;;;;24.85;20.10;;;;;;;-142.70;100.00;60390.16;4835234;29;20029;-77
2023/03/24 01:31:59;;;;;;;21.23;17.13;;;;;;;-142.70;100.00;60390.16;4851127;29;20044;-78
2023/03/24 01:34:24;;;;;;;27.05;19.05;;;;;;;-142.70;100.00;60390.16;4850562;29;20075;-77
2023/03/24 01:36:50;;;;;;;25.48;18.77;;;;;;;-142.70;100.00;60390.16;4851413;29;20097;-77
2023/03/24 01:39:15;;;;;;;29.50;21.33;;;;;;;-142.70;100.00;60390.16;4849673;29;20076;-77
2023/03/24 01:41:41;;;;;;;24.77;19.58;;;;;;;-142.70;100.00;60390.16;4835832;29;20102;-77
2023/03/24 01:44:30;;;;;;;24.75;19.33;;;;;;;-142.70;100.00;60390.16;4850079;29;20042;-78
2023/03/24 01:46:56;;;;;;;23.30;17.95;;;;;;;-142.70;100.00;60390.16;4850419;29;20484;-78
2023/03/24 01:49:26;;;;;;;30.58;23.10;;;;;;;-142.70;100.00;60390.16;4850278;29;20062;-78
2023/03/24 01:51:55;;;;;;;32.78;22.42;;;;;;;-142.70;100.00;60390.16;4850604;29;20386;-78
2023/03/24 01:54:34;;;;;;;31.45;22.02;;;;;;;-142.70;100.00;60390.16;4850881;29;20037;-78
2023/03/24 01:57:07;;;;;;;33.38;25.15;;;;;;;-142.70;100.00;60390.16;4849954;29;20045;-78
2023/03/24 01:59:35;;;;;;;35.83;24.50;;;;;;;-142.70;100.00;60390.16;4835438;29;20147;-78
2023/03/24 02:02:02;;;;;;;28.25;20.85;;;;;;;-142.70;100.00;60390.16;4850021;29;20048;-77
2023/03/24 02:04:33;;;;;;;30.10;23.42;;;;;;;-142.70;100.00;60390.16;4834633;29;20496;-77
2023/03/24 02:07:03;;;;;;;26.05;19.48;;;;;;;-142.70;100.00;60390.16;4850261;29;20143;-77
2023/03/24 02:09:28;;;;;;;28.52;18.60;;;;;;;-142.70;100.00;60390.16;4850072;29;20507;-77
2023/03/24 02:11:54;;;;;;;30.55;19.73;;;;;;;-142.70;100.00;60390.16;4851330;29;20066;-79
2023/03/24 02:14:19;;;;;;;27.10;20.02;;;;;;;-142.70;100.00;60390.16;4834713;29;20085;-79
2023/03/24 02:16:52;;;;;;;22.17;18.05;;;;;;;-142.70;100.00;60390.16;4851029;29;20955;-79
2023/03/24 02:19:45;;;;;;;28.30;19.88;;;;;;;-142.70;100.00;60390.16;4850908;29;20082;-79
2023/03/24 02:22:46;;;;;;;25.13;19.33;;;;;;;-142.70;100.00;60390.16;4849600;29;20629;-78
2023/03/24 02:25:36;;;;;;;27.48;20.00;;;;;;;-142.70;100.00;60390.16;4840383;29;20108;-79
2023/03/24 02:28:08;;;;;;;29.10;20.70;;;;;;;-142.70;100.00;60390.16;4851252;29;20045;-79
2023/03/24 02:31:03;;;;;;;28.05;19.73;;;;;;;-142.70;100.00;60390.16;4852064;29;20037;-79
2023/03/24 02:33:53;;;;;;;28.42;20.65;;;;;;;-142.70;100.00;60390.16;4824524;29;20053;-79
2023/03/24 02:36:35;;;;;;;32.75;20.83;;;;;;;-142.70;100.00;60390.16;4849578;29;20037;-78
2023/03/24 02:39:22;;;;;;;40.70;26.20;;;;;;;-142.70;100.00;60390.16;4851652;29;20040;-78
2023/03/24 02:42:00;;;;;;;28.95;18.75;;;;;;;-142.70;100.00;60390.16;4854080;29;20484;-77
2023/03/24 02:44:59;;;;;;;26.65;19.33;;;;;;;-142.70;100.00;60390.16;4850903;29;20041;-79
2023/03/24 02:47:47;;;;;;;31.27;21.57;;;;;;;-142.70;100.00;60390.16;4851277;29;20041;-78
2023/03/24 02:50:39;;;;;;;26.88;20.45;;;;;;;-142.70;100.00;60390.16;4863665;29;20846;-78
2023/03/24 02:53:16;;;;;;;27.02;19.73;;;;;;;-142.70;100.00;60390.16;4834352;29;20120;-79
2023/03/24 02:56:09;;;;;;;23.40;17.83;;;;;;;-142.70;100.00;60390.16;4850219;29;20080;-79
2023/03/24 02:59:04;;;;;;;27.67;19.13;;;;;;;-142.70;100.00;60390.16;4850067;29;20064;-78
2023/03/24 03:01:39;;;;;;;25.48;17.75;;;;;;;-142.70;100.00;60390.16;4832343;29;20050;-78
2023/03/24 03:04:14;;;;;;;27.35;18.90;;;;;;;-142.70;100.00;60390.16;4834408;29;20042;-78
2023/03/24 03:06:44;;;;;;;29.25;19.88;;;;;;;-142.70;100.00;60390.16;4818316;29;20022;-78
2023/03/24 03:09:12;;;;;;;32.80;22.15;;;;;;;-142.70;100.00;60390.16;4833552;29;20033;-78
2023/03/24 03:11:45;;;;;;;25.30;19.48;;;;;;;-142.70;100.00;60390.16;4833552;29;20037;-79
2023/03/24 03:14:18;;;;;;;27.48;20.60;;;;;;;-142.70;100.00;60390.16;4834158;29;20041;-79
2023/03/24 03:16:53;;;;;;;31.33;20.80;;;;;;;-142.70;100.00;60390.16;4818600;29;20038;-78
2023/03/24 03:19:30;;;;;;;29.42;20.92;;;;;;;-142.70;100.00;60390.16;4818884;29;20033;-80
2023/03/24 03:21:57;;;;;;;39.45;24.23;;;;;;;-142.70;100.00;60390.16;4823901;29;20428;-80
2023/03/24 03:24:30;;;;;;;33.70;23.35;;;;;;;-142.70;100.00;60390.16;4837788;29;20049;-80
2023/03/24 03:27:01;;;;;;;30.00;20.45;;;;;;;-142.70;100.00;60390.16;4824900;29;20033;-78
2023/03/24 03:29:29;;;;;;;24.35;17.88;;;;;;;-142.70;100.00;60390.16;4817369;29;20069;-78
2023/03/24 03:31:58;;;;;;;22.70;17.10;;;;;;;-142.70;100.00;60390.16;4818113;29;20037;-77
2023/03/24 03:34:45;;;;;;;26.47;19.13;;;;;;;-142.70;100.00;60390.16;4818425;29;20045;-78
2023/03/24 03:37:25;;;;;;;28.45;18.88;;;;;;;-142.70;100.00;60390.16;4807528;29;20281;-78
2023/03/24 03:39:55;;;;;;;31.70;21.25;;;;;;;-142.70;100.00;60390.16;4817994;29;20037;-78
2023/03/24 03:42:21;;;;;;;29.73;21.30;;;;;;;-142.70;100.00;60390.16;4833367;29;20026;-78
2023/03/24 03:44:47;;;;;;;32.40;21.63;;;;;;;-142.70;100.00;60390.16;4833014;29;20148;-78
2023/03/24 03:47:13;;;;;;;28.50;20.00;;;;;;;-142.70;100.00;60390.16;4831584;29;20037;-77
2023/03/24 03:49:39;;;;;;;29.95;20.63;;;;;;;-142.70;100.00;60390.16;4817630;29;20029;-78
2023/03/24 03:52:05;;;;;;;24.63;17.77;;;;;;;-142.70;100.00;60390.16;4832926;29;20212;-78
2023/03/24 03:54:30;;;;;;;22.25;16.33;;;;;;;-142.70;100.00;60390.16;4814245;29;20061;-78
2023/03/24 03:56:57;;;;;;;21.80;16.80;;;;;;;-142.70;100.00;60390.16;4842469;29;20050;-78
2023/03/24 03:59:35;;;;;;;26.35;17.77;;;;;;;-142.70;100.00;60390.16;4817379;29;20086;-78
2023/03/24 04:02:16;;;;;;;24.20;16.98;;;;;;;-142.70;100.00;60390.16;4832605;29;20079;-78
2023/03/24 04:04:45;;;;;;;24.35;17.95;;;;;;;-142.70;100.00;60390.16;4836355;29;20082;-77
2023/03/24 04:07:17;;;;;;;24.95;17.40;;;;;;;-142.70;100.00;60390.16;4849483;29;20116;-78
2023/03/24 04:10:10;;;;;;;22.33;16.70;;;;;;;-142.70;100.00;60390.16;4842716;29;20109;-78
2023/03/24 04:12:56;;;;;;;28.55;20.50;;;;;;;-142.70;100.00;60390.16;4826349;29;20051;-78
2023/03/24 04:15:34;;;;;;;35.03;22.25;;;;;;;-142.70;100.00;60390.16;4849978;29;20025;-79
2023/03/24 04:18:30;;;;;;;30.50;20.70;;;;;;;-142.70;100.00;60390.16;4814343;29;20133;-78
2023/03/24 04:21:06;;;;;;;26.88;19.00;;;;;;;-142.70;100.00;60390.16;4843299;29;20041;-78
2023/03/24 04:24:01;;;;;;;28.40;17.73;;;;;;;-142.70;100.00;60390.16;4817708;29;20514;-77
2023/03/24 04:26:33;;;;;;;30.90;21.17;;;;;;;-142.70;100.00;60390.16;4832124;29;20133;-78
2023/03/24 04:29:26;;;;;;;35.58;22.92;;;;;;;-142.70;100.00;60390.16;4832335;29;20745;-78
2023/03/24 04:32:07;;;;;;;30.40;21.58;;;;;;;-142.70;100.00;60390.16;4832064;29;20510;-77
2023/03/24 04:34:49;;;;;;;33.42;23.40;;;;;;;-142.70;100.00;60390.16;4831970;29;20038;-77
2023/03/24 04:37:22;;;;;;;36.25;24.77;;;;;;;-142.70;100.00;60390.16;4817831;29;20073;-77
2023/03/24 04:39:48;;;;;;;23.65;18.30;;;;;;;-142.70;100.00;60390.16;4831933;29;20449;-77
2023/03/24 04:42:18;;;;;;;33.15;22.60;;;;;;;-142.70;100.00;60390.16;4816871;29;20437;-79
2023/03/24 04:44:43;;;;;;;;;;;;;;;-142.70;100.00;60390.16;4832979;29;20028;-79
2023/03/24 04:47:11;;;;;;;48.42;32.85;;;;;;;-142.70;100.00;60390.16;4832261;29;19920;-79
2023/03/24 04:49:38;;;;;;;51.15;36.72;;;;;;;-142.70;100.00;60390.16;4846766;29;20041;-79
2023/03/24 04:52:05;;;;;;;47.92;31.77;;;;;;;-142.70;100.00;60390.16;4849654;29;20069;-79
2023/03/24 04:54:31;;;;;;;34.05;20.35;;;;;;;-142.70;100.00;60390.16;4834233;29;20489;-79
2023/03/24 04:56:59;;;;;;;31.40;21.98;;;;;;;-142.70;100.00;60390.16;4833756;29;20084;-79
2023/03/24 04:59:24;;;;;;;27.60;19.33;;;;;;;-142.70;100.00;60390.16;4819062;29;20037;-78
2023/03/24 05:01:50;;;;;;;28.08;18.40;;;;;;;-142.70;100.00;60390.16;4832434;29;20082;-79
2023/03/24 05:04:22;;;;;;;26.98;19.10;;;;;;;-142.70;100.00;60390.16;4831493;29;20033;-78
2023/03/24 05:06:50;;;;;;;27.95;17.42;;;;;;;-142.70;100.00;60390.16;4831361;29;20052;-79
2023/03/24 05:09:20;;;;;;;26.93;18.17;;;;;;;-142.70;100.00;60390.16;4832896;29;20025;-79
2023/03/24 05:11:46;;;;;;;21.25;15.95;;;;;;;-142.70;100.00;60390.16;4833844;29;20270;-79
2023/03/24 05:14:12;;;;;;;26.88;17.15;;;;;;;-142.70;100.00;60390.16;4834292;29;20427;-79
2023/03/24 05:16:37;;;;;;;16.33;13.13;;;;;;;-142.70;100.00;60390.16;4834904;29;20036;-79
2023/03/24 05:19:03;;;;;;;16.92;12.75;;;;;;;-142.70;100.00;60390.16;4835354;29;20092;-80
2023/03/24 05:21:29;;;;;;;17.00;15.25;;;;;;;-142.70;100.00;60390.16;4835517;29;20025;-80
2023/03/24 05:23:55;;;;;;;17.67;16.08;;;;;;;-142.70;100.00;60390.16;4831293;29;20052;-80
2023/03/24 05:26:20;;;;;;;22.25;17.17;;;;;;;-142.70;100.00;60390.16;4830059;29;20066;-78
2023/03/24 05:28:46;;;;;;;14.90;12.85;;;;;;;-142.70;100.00;60390.16;4813324;29;20037;-82
2023/03/24 05:31:11;;;;;;;10.82;9.82;;;;;;;-142.70;100.00;60390.16;4847622;29;20048;-80
2023/03/24 05:33:37;;;;;;;14.98;10.88;;;;;;;-142.70;100.00;60390.16;4831607;29;20072;-79
2023/03/24 05:36:03;;;;;;;17.65;14.52;;;;;;;-142.70;100.00;60390.16;4831266;29;20420;-80
2023/03/24 05:38:28;;;;;;;41.15;33.00;;;;;;;-142.70;100.00;60390.16;4818289;29;20112;-79
2023/03/24 05:41:00;;;;;;;34.42;24.95;;;;;;;-142.70;100.00;60390.16;4831709;29;20080;-79
2023/03/24 05:43:26;;;;;;;18.88;16.95;;;;;;;-142.70;100.00;60390.16;4849480;29;20098;-79
2023/03/24 05:45:52;;;;;;;15.23;13.68;;;;;;;-142.70;100.00;60390.16;4830451;29;20448;-79
2023/03/24 05:48:17;;;;;;;13.23;11.95;;;;;;;-142.70;100.00;60390.16;4847990;29;20034;-78
2023/03/24 05:50:42;;;;;;;15.70;14.10;;;;;;;-142.70;100.00;60390.16;4829975;29;20534;-79
2023/03/24 05:53:08;;;;;;;16.92;15.32;;;;;;;-142.70;100.00;60390.16;4814670;29;20639;-78
2023/03/24 05:55:34;;;;;;;16.52;14.93;;;;;;;-142.70;100.00;60390.16;4830919;29;20101;-83
2023/03/24 05:58:00;;;;;;;13.63;12.50;;;;;;;-142.70;100.00;60390.16;4847200;29;20251;-85
2023/03/24 06:00:27;;;;;;;14.02;12.73;;;;;;;-142.70;100.00;60390.16;4829961;29;20063;-82
2023/03/24 06:02:55;;;;;;;12.60;11.52;;;;;;;-142.70;100.00;60390.16;4845763;29;20034;-86
2023/03/24 06:05:20;;;;;;;11.25;10.20;;;;;;;-142.70;100.00;60390.16;4814627;29;20152;-82
2023/03/24 06:07:46;;;;;;;10.68;9.63;;;;;;;-142.70;100.00;60390.16;4830469;29;20129;-83
2023/03/24 06:10:13;;;;;;;9.55;8.85;;;;;;;-142.70;100.00;60390.16;4817591;29;20087;-84
2023/03/24 06:12:40;;;;;;;9.98;9.07;;;;;;;-142.70;100.00;60390.16;4817331;29;20034;-84
2023/03/24 06:15:07;;;;;;;9.23;8.52;;;;;;;-142.70;100.00;60390.16;4807211;29;20042;-82
2023/03/24 06:17:33;;;;;;;9.95;9.25;;;;;;;-142.70;100.00;60390.16;4832378;29;20085;-82
2023/03/24 06:20:01;;;;;;;9.68;8.98;;;;;;;-142.70;100.00;60390.16;4828963;29;20029;-82
2023/03/24 06:22:28;;;;;;;9.15;8.55;;;;;;;-142.70;100.00;60390.16;4839744;29;20497;-82
2023/03/24 06:24:55;;;;;;;9.23;8.52;;;;;;;-142.70;100.00;60390.16;4829398;29;20068;-81
2023/03/24 06:27:24;;;;;;;9.10;8.47;;;;;;;-142.70;100.00;60390.16;4827318;29;20037;-82
2023/03/24 06:29:50;;;;;;;8.75;8.10;;;;;;;-142.70;100.00;60390.16;4814119;29;20168;-81
2023/03/24 06:32:19;;;;;;;9.50;8.80;;;;;;;-142.70;100.00;60390.16;4827327;29;20030;-81
2023/03/24 06:34:45;;;;;;;8.13;7.38;;;;;;;-142.70;100.00;60390.16;4841837;29;20065;-79
2023/03/24 06:37:10;;;;;;;8.75;8.15;;;;;;;-142.70;100.00;60390.16;4832313;29;20117;-80
2023/03/24 06:39:35;;;;;;;8.88;8.25;;;;;;;-142.70;100.00;60390.16;4829004;29;20485;-80
2023/03/24 06:42:01;;;;;;;7.80;7.20;;;;;;;-142.70;100.00;60390.16;4809274;29;20052;-80
2023/03/24 06:44:26;;;;;;;9.63;7.43;;;;;;;-142.70;100.00;60390.16;4846871;29;20854;-80
2023/03/24 06:46:52;;;;;;;8.57;7.97;;;;;;;-142.70;100.00;60390.16;4832509;29;20037;-80
2023/03/24 06:49:18;;;;;;;10.82;10.10;;;;;;;-142.70;100.00;60390.16;4835139;29;20034;-80
2023/03/24 06:51:43;;;;;;;9.73;8.93;;;;;;;-142.70;100.00;60390.16;4833647;29;20101;-80
2023/03/24 06:54:09;;;;;;;10.38;9.52;;;;;;;-142.70;100.00;60390.16;4816725;29;20037;-80
2023/03/24 06:56:34;;;;;;;9.95;9.25;;;;;;;-142.70;100.00;60390.16;4817564;29;20058;-80
2023/03/24 06:59:00;;;;;;;10.23;9.32;;;;;;;-142.70;100.00;60390.16;4849805;29;20148;-80
2023/03/24 07:01:26;;;;;;;11.00;10.02;;;;;;;-142.70;100.00;60390.16;4833129;29;20045;-80
2023/03/24 07:03:52;;;;;;;11.52;10.63;;;;;;;-142.70;100.00;60390.16;4833030;29;20484;-80
2023/03/24 07:06:17;;;;;;;11.20;10.40;;;;;;;-142.70;100.00;60390.16;4814630;29;20060;-79
2023/03/24 07:08:43;;;;;;;11.30;10.50;;;;;;;-142.70;100.00;60390.16;4826410;29;20090;-79
2023/03/24 07:11:09;;;;;;;13.27;12.32;;;;;;;-142.70;100.00;60390.16;4816169;29;20412;-79
2023/03/24 07:13:35;;;;;;;13.60;12.55;;;;;;;-142.70;100.00;60390.16;4818050;29;20038;-79
2023/03/24 07:16:00;;;;;;;14.70;13.48;;;;;;;-142.70;100.00;60390.16;4832483;29;20060;-79
2023/03/24 07:18:26;;;;;;;13.65;12.45;;;;;;;-142.70;100.00;60390.16;4833113;29;20488;-78
2023/03/24 07:20:51;;;;;;;13.82;12.82;;;;;;;-142.70;100.00;60390.16;4816312;29;20041;-79
2023/03/24 07:23:17;;;;;;;14.90;13.88;;;;;;;-142.70;100.00;60390.16;4832159;29;20419;-79
2023/03/24 07:25:43;;;;;;;13.90;12.82;;;;;;;-142.70;100.00;60390.16;4832299;29;20048;-79
2023/03/24 07:28:09;;;;;;;14.88;13.68;;;;;;;-142.70;100.00;60390.16;4816224;29;20120;-79
2023/03/24 07:30:35;;;;;;;14.52;13.13;;;;;;;-142.70;100.00;60390.16;4809716;29;20125;-79
2023/03/24 07:33:01;;;;;;;15.23;13.80;;;;;;;-142.70;100.00;60390.16;4833574;29;20060;-79
2023/03/24 07:35:27;;;;;;;14.70;13.57;;;;;;;-142.70;100.00;60390.16;4805691;29;20042;-79
2023/03/24 07:37:57;;;;;;;16.27;14.90;;;;;;;-142.70;100.00;60390.16;4830797;29;20037;-78
2023/03/24 07:40:22;;;;;;;15.73;14.25;;;;;;;-142.70;100.00;60390.16;4814068;29;20047;-79
2023/03/24 07:42:48;;;;;;;15.80;14.60;;;;;;;-142.70;100.00;60390.16;4847967;29;20033;-78
2023/03/24 07:45:13;;;;;;;17.73;16.23;;;;;;;-142.70;100.00;60390.16;4831977;29;20532;-79
2023/03/24 07:47:43;;;;;;;17.75;16.35;;;;;;;-142.70;100.00;60390.16;4832136;29;20453;-78
2023/03/24 07:50:09;;;;;;;18.20;16.63;;;;;;;-142.70;100.00;60390.16;4831874;29;20029;-77
2023/03/24 07:52:39;;;;;;;18.15;16.33;;;;;;;-142.70;100.00;60390.16;4829425;29;20488;-78
2023/03/24 07:55:07;;;;;;;17.90;15.95;;;;;;;-142.70;100.00;60390.16;4831752;29;20158;-77
2023/03/24 07:57:35;;;;;;;17.13;15.55;;;;;;;-142.70;100.00;60390.16;4836144;29;20436;-76
2023/03/24 08:00:07;;;;;;;18.13;16.48;;;;;;;-142.70;100.00;60390.16;4846561;29;20178;-77
2023/03/24 08:02:32;;;;;;;15.13;13.65;;;;;;;-142.70;100.00;60390.16;4846973;29;20052;-76
2023/03/24 08:04:58;;;;;;;16.45;13.13;;;;;;;-142.70;100.00;60390.16;4847081;29;20404;-77
2023/03/24 08:07:23;;;;;;;13.98;12.82;;;;;;;-142.70;100.00;60390.16;4846573;29;20584;-76
2023/03/24 08:09:49;;;;;;;13.38;12.27;;;;;;;-142.70;100.00;60390.16;4847003;29;20112;-77
2023/03/24 08:12:14;;;;;;;13.48;12.23;;;;;;;-142.70;100.00;60390.16;4835813;29;20049;-76
2023/03/24 08:14:40;;;;;;;14.98;13.45;;;;;;;-142.70;100.00;60390.16;4837985;29;20424;-77
2023/03/24 08:17:05;;;;;;;17.17;15.43;;;;;;;-142.70;100.00;60390.16;4830111;29;20424;-76
2023/03/24 08:19:31;;;;;;;16.17;14.32;;;;;;;-142.70;100.00;60390.16;4839715;29;20064;-80
2023/03/24 08:21:56;;;;;;;14.18;12.85;;;;;;;-142.70;100.00;60390.16;4844808;29;20026;-78
2023/03/24 08:24:22;;;;;;;14.90;13.60;;;;;;;-142.70;100.00;60390.16;4847417;29;20576;-79
2023/03/24 08:26:47;;;;;;;17.98;16.10;;;;;;;-142.70;100.00;60390.16;4845698;29;20733;-78
2023/03/24 08:29:13;;;;;;;16.40;14.77;;;;;;;-142.70;100.00;60390.16;4827953;29;20029;-77
2023/03/24 08:31:39;;;;;;;15.00;13.57;;;;;;;-142.70;100.00;60390.16;4844566;29;20041;-79
2023/03/24 08:34:05;;;;;;;16.08;14.35;;;;;;;-142.70;100.00;60390.16;4830308;29;20664;-78
2023/03/24 08:36:31;;;;;;;14.75;12.88;;;;;;;-142.70;100.00;60390.16;4847979;29;20544;-79
2023/03/24 08:38:56;;;;;;;17.27;15.68;;;;;;;-142.70;100.00;60390.16;4846591;29;20052;-76
2023/03/24 08:41:35;;;;;;;14.75;13.30;;;;;;;-142.70;100.00;60390.16;4831149;29;20038;-78
2023/03/24 08:44:04;;;;;;;16.80;15.30;;;;;;;-142.70;100.00;60390.16;4847429;29;20703;-78
2023/03/24 08:46:30;;;;;;;14.63;13.13;;;;;;;-142.70;100.00;60390.16;4846069;29;20038;-75
2023/03/24 08:48:57;;;;;;;16.40;14.93;;;;;;;-142.70;100.00;60390.16;4846988;29;20041;-77
2023/03/24 08:51:22;;;;;;;14.80;13.50;;;;;;;-142.70;100.00;60390.16;4846045;29;20038;-76
2023/03/24 08:53:50;;;;;;;14.50;13.18;;;;;;;-142.70;100.00;60390.16;4830801;29;20599;-76
2023/03/24 08:56:15;;;;;;;14.70;13.23;;;;;;;-142.70;100.00;60390.16;4846651;29;20036;-76
2023/03/24 08:58:42;;;;;;;12.93;11.68;;;;;;;-142.70;100.00;60390.16;4832451;29;20045;-76
2023/03/24 09:01:08;;;;;;;14.15;12.85;;;;;;;-142.70;100.00;60390.16;4827176;29;20512;-76
2023/03/24 09:03:34;;;;;;;15.18;13.63;;;;;;;-142.70;100.00;60390.16;4820796;29;20069;-77
2023/03/24 09:06:00;;;;;;;10.15;9.18;;;;;;;-142.70;100.00;60390.16;4812715;29;20097;-78
2023/03/24 09:08:26;;;;;;;11.63;10.73;;;;;;;-142.70;100.00;60390.16;4830985;29;20042;-78
2023/03/24 09:10:51;;;;;;;11.35;9.63;;;;;;;-142.70;100.00;60390.16;4831069;29;20558;-79
2023/03/24 09:13:18;;;;;;;11.45;10.45;;;;;;;-142.70;100.00;60390.16;4831008;29;20026;-80
2023/03/24 09:15:52;;;;;;;12.50;10.60;;;;;;;-142.70;100.00;60390.16;4830758;29;20063;-79
2023/03/24 09:18:18;;;;;;;11.13;10.13;;;;;;;-142.70;100.00;60390.16;4814129;29;20087;-79
2023/03/24 09:20:44;;;;;;;9.57;8.77;;;;;;;-142.70;100.00;60390.16;4819325;29;20099;-79
2023/03/24 09:23:10;;;;;;;9.23;8.38;;;;;;;-142.70;100.00;60390.16;4831538;29;20033;-78
2023/03/24 09:25:36;;;;;;;9.15;8.23;;;;;;;-142.70;100.00;60390.16;4843251;29;20037;-79
2023/03/24 09:28:01;;;;;;;9.30;8.43;;;;;;;-142.70;100.00;60390.16;4810346;29;20551;-80
2023/03/24 09:30:27;;;;;;;10.25;9.27;;;;;;;-142.70;100.00;60390.16;4830970;29;20041;-79
2023/03/24 09:32:53;;;;;;;10.57;9.73;;;;;;;-142.70;100.00;60390.16;4830826;29;20026;-79
2023/03/24 09:35:18;;;;;;;10.38;9.57;;;;;;;-142.70;100.00;60390.16;4830736;29;20030;-79
2023/03/24 09:37:44;;;;;;;8.45;7.75;;;;;;;-142.70;100.00;60390.16;4826481;29;20053;-79
2023/03/24 09:40:37;;;;;;;8.55;7.70;;;;;;;-142.70;100.00;60390.16;4839366;29;20038;-79
2023/03/24 09:43:05;;;;;;;8.52;7.82;;;;;;;-142.70;100.00;60390.16;4796941;29;20440;-79
2023/03/24 09:45:47;;;;;;;9.25;8.35;;;;;;;-142.70;100.00;60390.16;4817090;29;20036;-79
2023/03/24 09:48:19;;;;;;;11.07;10.07;;;;;;;-142.70;100.00;60390.16;4812943;29;20056;-79
2023/03/24 09:51:12;;;;;;;10.63;9.73;;;;;;;-142.70;100.00;60390.16;4796110;29;20124;-78
2023/03/24 09:53:56;;;;;;;10.15;9.10;;;;;;;-142.70;100.00;60390.16;4794945;29;20518;-78
2023/03/24 09:56:22;;;;;;;11.15;10.15;;;;;;;-142.70;100.00;60390.16;4821051;29;20041;-78
2023/03/24 09:58:53;;;;;;;11.45;10.35;;;;;;;-142.70;100.00;60390.16;4839218;29;20144;-78
2023/03/24 10:01:18;;;;;;;10.45;9.50;;;;;;;-142.70;100.00;60390.16;4839246;29;20083;-78
2023/03/24 10:03:46;;;;;;;9.95;9.15;;;;;;;-142.70;100.00;60390.16;4835731;29;20061;-78
2023/03/24 10:06:27;;;;;;;9.20;8.48;;;;;;;-142.70;100.00;60390.16;4837101;29;20223;-79
2023/03/24 10:09:07;;;;;;;10.80;9.80;;;;;;;-142.70;100.00;60390.16;4854063;29;20060;-79
2023/03/24 10:11:41;;;;;;;;;;;;;;;-142.70;100.00;60390.16;4834935;29;20113;-76
2023/03/24 10:14:16;;;;;;;6.10;5.60;;;;;;;-142.70;100.00;60390.16;4841883;29;20539;-78
2023/03/24 10:17:16;;;;;;;6.45;5.85;;;;;;;-142.70;100.00;60390.16;4836914;29;20037;-79
2023/03/24 10:19:53;;;;;;;10.95;5.30;;;;;;;-142.70;100.00;60390.16;4831098;29;20537;-79
2023/03/24 10:22:21;;;;;;;7.10;6.50;;;;;;;-142.70;100.00;60390.16;4843135;29;20034;-79
2023/03/24 10:25:23;;;;;;;7.60;6.90;;;;;;;-142.70;100.00;60390.16;4839857;29;20044;-78
2023/03/24 10:28:07;;;;;;;9.13;6.53;;;;;;;-142.70;100.00;60390.16;4848159;29;20408;-79
2023/03/24 10:30:36;;;;;;;7.32;6.72;;;;;;;-142.70;100.00;60390.16;4861970;29;20691;-79
2023/03/24 10:33:02;;;;;;;;;;;;;;;-142.70;100.00;60390.16;4848162;29;20041;-76
2023/03/24 10:35:36;;;;;;;7.20;6.68;;;;;;;-142.70;100.00;60390.16;4845627;29;20018;-77
2023/03/24 10:38:12;;;;;;;6.68;5.72;;;;;;;-142.70;100.00;60390.16;4839344;29;20504;-77
2023/03/24 10:40:39;;;;;;;5.38;4.88;;;;;;;-142.70;100.00;60390.16;4848338;29;20124;-76
2023/03/24 10:43:05;;;;;;;5.00;4.60;;;;;;;-142.70;100.00;60390.16;4847216;29;20484;-77
2023/03/24 10:45:35;;;;;;;4.50;4.05;;;;;;;-142.70;100.00;60390.16;4848664;29;20037;-77
2023/03/24 10:48:02;;;;;;;5.28;4.78;;;;;;;-142.70;100.00;60390.16;4845265;29;20055;-77
2023/03/24 10:50:29;;;;;;;4.45;4.15;;;;;;;-142.70;100.00;60390.16;4845964;29;20037;-77
2023/03/24 10:52:56;;;;;;;5.25;4.75;;;;;;;-142.70;100.00;60390.16;4849849;29;20045;-79
2023/03/24 10:55:37;;;;;;;4.43;4.10;;;;;;;-142.70;100.00;60390.16;4837894;29;20551;-78
2023/03/24 10:58:11;;;;;;;4.60;4.20;;;;;;;-142.70;100.00;60390.16;4843353;29;20152;-78
2023/03/24 11:00:37;;;;;;;4.85;4.38;;;;;;;-142.70;100.00;60390.16;4825792;29;20074;-79
2023/03/24 11:03:09;;;;;;;4.20;3.90;;;;;;;-142.70;100.00;60390.16;4847237;29;20477;-78
2023/03/24 11:05:37;;;;;;;4.10;3.80;;;;;;;-142.70;100.00;60390.16;4847161;29;20036;-78
2023/03/24 11:08:24;;;;;;;3.72;3.42;;;;;;;-142.70;100.00;60390.16;4835911;29;20058;-78
2023/03/24 11:10:52;;;;;;;3.38;3.05;;;;;;;-142.70;100.00;60390.16;4838867;29;20508;-78
2023/03/24 11:13:25;;;;;;;3.08;2.88;;;;;;;-142.70;100.00;60390.16;4834927;29;20038;-78